createdAt,value
2019-03-30T00:01:25.605Z,22.07
2019-03-30T00:03:55.498Z,26.40
2019-03-30T00:06:25.397Z,24.23
2019-03-30T00:08:55.315Z,25.57
2019-03-30T00:11:25.231Z,22.80
2019-03-30T00:13:55.319Z,24.23
2019-03-30T00:16:25.261Z,23.20
2019-03-30T00:18:55.158Z,25.60
2019-03-30T00:21:25.010Z,28.47
2019-03-30T00:23:54.930Z,25.87
2019-03-30T00:26:24.874Z,25.63
2019-03-30T00:28:54.813Z,26.90
2019-03-30T00:31:24.778Z,26.50
2019-03-30T00:33:54.762Z,26.83
2019-03-30T00:36:24.650Z,29.50
2019-03-30T00:38:54.664Z,44.17
2019-03-30T00:41:25.097Z,46.67
2019-03-30T00:43:55.015Z,44.73
2019-03-30T00:46:25.020Z,62.57
2019-03-30T00:48:54.923Z,55.87
2019-03-30T00:51:24.793Z,51.50
2019-03-30T00:53:54.751Z,42.40
2019-03-30T00:56:24.686Z,41.23
2019-03-30T00:58:54.641Z,36.77
2019-03-30T01:01:24.595Z,26.00
2019-03-30T01:03:54.493Z,26.50
2019-03-30T01:06:24.391Z,27.10
2019-03-30T01:08:54.314Z,35.73
2019-03-30T01:11:24.220Z,50.90
2019-03-30T01:13:54.104Z,64.90
2019-03-30T01:16:24.020Z,64.03
2019-03-30T01:18:53.931Z,66.40
2019-03-30T01:21:23.945Z,66.03
2019-03-30T01:23:53.909Z,61.03
2019-03-30T01:26:23.825Z,54.20
2019-03-30T01:28:53.987Z,45.40
2019-03-30T01:31:24.066Z,41.17
2019-03-30T01:33:53.963Z,36.13
2019-03-30T01:36:23.881Z,31.17
2019-03-30T01:38:53.838Z,27.17
2019-03-30T01:41:23.761Z,25.40
2019-03-30T01:43:53.672Z,27.40
2019-03-30T01:46:23.558Z,29.37
2019-03-30T01:48:53.448Z,26.53
2019-03-30T01:51:23.370Z,28.10
2019-03-30T01:53:53.300Z,30.33
2019-03-30T01:56:23.190Z,30.00
2019-03-30T01:58:53.076Z,28.67
2019-03-30T02:01:23.053Z,31.60
2019-03-30T02:03:52.962Z,27.10
2019-03-30T02:06:22.933Z,28.93
2019-03-30T02:08:53.029Z,22.90
2019-03-30T02:11:23.066Z,27.13
2019-03-30T02:13:52.948Z,25.43
2019-03-30T02:16:23.028Z,26.77
2019-03-30T02:18:52.942Z,29.73
2019-03-30T02:21:22.999Z,26.97
2019-03-30T02:23:52.907Z,30.37
2019-03-30T02:26:22.853Z,24.43
2019-03-30T02:28:52.739Z,29.83
2019-03-30T02:31:22.852Z,29.67
2019-03-30T02:33:52.778Z,31.53
2019-03-30T02:36:22.733Z,36.80
2019-03-30T02:38:52.659Z,36.07
2019-03-30T02:41:22.593Z,32.30
2019-03-30T02:43:52.495Z,33.33
2019-03-30T02:46:22.363Z,31.00
2019-03-30T02:48:52.250Z,33.13
2019-03-30T02:51:22.152Z,33.37
2019-03-30T02:53:52.053Z,38.67
2019-03-30T02:56:22.067Z,34.03
2019-03-30T02:58:52.008Z,35.10
2019-03-30T03:01:21.905Z,32.83
2019-03-30T03:03:51.920Z,32.27
2019-03-30T03:06:21.967Z,33.60
2019-03-30T03:08:51.882Z,35.37
2019-03-30T03:11:21.806Z,31.20
2019-03-30T03:13:51.720Z,29.30
2019-03-30T03:16:21.602Z,39.33
2019-03-30T03:18:51.508Z,29.27
2019-03-30T03:21:21.411Z,28.60
2019-03-30T03:23:51.350Z,29.63
2019-03-30T03:26:21.247Z,25.30
2019-03-30T03:28:51.248Z,32.53
2019-03-30T03:31:21.606Z,29.87
2019-03-30T03:33:51.494Z,29.80
2019-03-30T03:36:21.396Z,30.83
2019-03-30T03:38:51.636Z,25.57
2019-03-30T03:41:21.588Z,30.00
2019-03-30T03:43:51.471Z,28.57
2019-03-30T03:46:21.344Z,26.87
2019-03-30T03:48:51.248Z,30.40
2019-03-30T03:51:26.085Z,27.60
2019-03-30T03:53:55.051Z,27.53
2019-03-30T03:56:27.788Z,29.57
2019-03-30T03:58:59.270Z,30.97
2019-03-30T04:01:30.723Z,27.53
2019-03-30T04:04:03.052Z,28.77
2019-03-30T04:06:34.293Z,27.37
2019-03-30T04:09:06.616Z,27.90
2019-03-30T04:11:37.918Z,26.37
2019-03-30T04:14:09.736Z,26.53
2019-03-30T04:16:39.668Z,27.40
2019-03-30T04:19:09.602Z,29.53
2019-03-30T04:21:44.445Z,31.60
2019-03-30T04:24:11.190Z,28.77
2019-03-30T04:26:41.068Z,32.60
2019-03-30T04:29:10.948Z,32.77
2019-03-30T04:31:40.839Z,30.33
2019-03-30T04:34:10.742Z,32.63
2019-03-30T04:36:40.649Z,29.60
2019-03-30T04:39:10.537Z,27.43
2019-03-30T04:41:40.448Z,33.47
2019-03-30T04:44:10.369Z,30.13
2019-03-30T04:46:40.304Z,32.30
2019-03-30T04:49:11.877Z,32.80
2019-03-30T04:51:41.834Z,27.57
2019-03-30T04:54:11.784Z,29.27
2019-03-30T04:56:41.712Z,28.87
2019-03-30T04:59:11.636Z,28.13
2019-03-30T05:01:41.634Z,29.47
2019-03-30T05:04:11.588Z,33.10
2019-03-30T05:06:41.863Z,34.07
2019-03-30T05:09:14.451Z,38.60
2019-03-30T05:11:44.334Z,36.37
2019-03-30T05:14:14.276Z,34.37
2019-03-30T05:16:44.221Z,33.80
2019-03-30T05:19:14.129Z,29.93
2019-03-30T05:21:44.062Z,33.43
2019-03-30T05:24:13.978Z,26.03
2019-03-30T05:26:43.925Z,28.00
2019-03-30T05:29:13.989Z,39.97
2019-03-30T05:31:44.543Z,33.77
2019-03-30T05:34:14.520Z,33.57
2019-03-30T05:36:44.531Z,34.53
2019-03-30T05:39:14.488Z,34.73
2019-03-30T05:41:44.416Z,35.10
2019-03-30T05:44:14.390Z,33.53
2019-03-30T05:46:44.320Z,37.10
2019-03-30T05:49:14.524Z,38.90
2019-03-30T05:51:44.673Z,38.33
2019-03-30T05:54:14.621Z,31.97
2019-03-30T05:56:44.733Z,33.07
2019-03-30T05:59:14.711Z,31.97
2019-03-30T06:01:44.726Z,25.10
2019-03-30T06:04:14.885Z,26.80
2019-03-30T06:06:44.841Z,22.73
2019-03-30T06:09:14.755Z,23.80
2019-03-30T06:11:44.654Z,25.40
2019-03-30T06:14:14.709Z,24.80
2019-03-30T06:16:44.572Z,25.60
2019-03-30T06:19:14.733Z,24.47
2019-03-30T06:21:44.645Z,25.93
2019-03-30T06:24:14.573Z,24.10
2019-03-30T06:26:44.521Z,25.47
2019-03-30T06:29:14.412Z,24.60
2019-03-30T06:31:46.739Z,29.03
2019-03-30T06:34:15.941Z,25.13
2019-03-30T06:36:45.850Z,27.20
2019-03-30T06:39:16.024Z,25.87
2019-03-30T06:41:45.926Z,25.23
2019-03-30T06:44:15.886Z,26.07
2019-03-30T06:46:45.838Z,29.10
2019-03-30T06:49:15.737Z,24.57
2019-03-30T06:51:45.937Z,25.43
2019-03-30T06:54:16.292Z,24.17
2019-03-30T06:56:46.307Z,26.93
2019-03-30T06:59:16.199Z,24.83
2019-03-30T07:01:46.796Z,25.17
2019-03-30T07:04:16.943Z,25.07
2019-03-30T07:06:47.064Z,27.23
2019-03-30T07:09:19.010Z,28.50
2019-03-30T07:11:50.757Z,27.03
2019-03-30T07:14:22.238Z,25.27
2019-03-30T07:16:55.017Z,21.70
2019-03-30T07:19:27.896Z,23.37
2019-03-30T07:21:58.310Z,20.30
2019-03-30T07:24:28.774Z,20.03
2019-03-30T07:26:58.657Z,23.13
2019-03-30T07:29:29.109Z,20.83
2019-03-30T07:31:59.092Z,24.37
2019-03-30T07:34:29.028Z,22.77
2019-03-30T07:36:58.922Z,22.70
2019-03-30T07:39:28.864Z,21.33
2019-03-30T07:41:58.792Z,20.07
2019-03-30T07:44:28.708Z,20.07
2019-03-30T07:46:58.734Z,17.67
2019-03-30T07:49:28.679Z,19.73
2019-03-30T07:51:58.758Z,18.90
2019-03-30T07:54:28.781Z,17.63
2019-03-30T07:57:05.536Z,18.87
2019-03-30T07:59:31.269Z,17.23
2019-03-30T08:02:01.197Z,17.10
2019-03-30T08:04:31.313Z,18.17
2019-03-30T08:07:01.264Z,18.05
2019-03-30T08:09:31.191Z,16.20
2019-03-30T08:12:01.344Z,16.90
2019-03-30T08:14:31.306Z,16.47
2019-03-30T08:17:01.347Z,17.33
2019-03-30T08:19:31.300Z,16.53
2019-03-30T08:22:01.310Z,15.93
2019-03-30T08:24:31.293Z,15.87
2019-03-30T08:27:01.250Z,23.03
2019-03-30T08:29:31.216Z,16.53
2019-03-30T08:32:01.213Z,17.53
2019-03-30T08:34:31.271Z,16.80
2019-03-30T08:37:01.313Z,15.57
2019-03-30T08:39:31.695Z,16.87
2019-03-30T08:42:01.618Z,17.90
2019-03-30T08:44:31.709Z,16.93
2019-03-30T08:47:01.645Z,17.63
2019-03-30T08:49:31.623Z,17.00
2019-03-30T08:52:01.586Z,15.57
2019-03-30T08:54:31.553Z,15.97
2019-03-30T08:57:01.503Z,16.03
2019-03-30T08:59:31.478Z,15.83
2019-03-30T09:02:01.421Z,15.40
2019-03-30T09:04:31.438Z,16.20
2019-03-30T09:07:01.378Z,15.53
2019-03-30T09:09:31.328Z,15.10
2019-03-30T09:12:01.286Z,14.03
2019-03-30T09:14:31.239Z,14.37
2019-03-30T09:17:01.173Z,13.17
2019-03-30T09:19:32.888Z,12.80
2019-03-30T09:22:02.825Z,13.30
2019-03-30T09:24:32.736Z,13.53
2019-03-30T09:27:02.683Z,13.20
2019-03-30T09:29:32.663Z,13.20
2019-03-30T09:32:13.757Z,13.13
2019-03-30T09:34:34.769Z,12.93
2019-03-30T09:37:05.013Z,12.67
2019-03-30T09:39:34.918Z,13.63
2019-03-30T09:42:04.955Z,12.50
2019-03-30T09:44:34.916Z,13.57
2019-03-30T09:47:05.210Z,15.80
2019-03-30T09:49:35.122Z,15.13
2019-03-30T09:52:05.284Z,14.30
2019-03-30T09:54:35.837Z,12.85
2019-03-30T09:57:06.785Z,12.33
2019-03-30T09:59:36.793Z,12.37
2019-03-30T10:02:06.814Z,12.70
2019-03-30T10:04:36.814Z,14.50
2019-03-30T10:07:06.784Z,12.40
2019-03-30T10:09:36.716Z,12.90
2019-03-30T10:12:06.707Z,13.90
2019-03-30T10:15:05.150Z,14.30
2019-03-30T10:17:35.080Z,13.90
2019-03-30T10:20:05.509Z,15.17
2019-03-30T10:22:35.559Z,15.27
2019-03-30T10:25:05.543Z,11.97
2019-03-30T10:27:35.491Z,12.37
2019-03-30T10:30:06.556Z,12.63
2019-03-30T10:32:37.561Z,12.77
2019-03-30T10:35:08.571Z,18.40
2019-03-30T10:37:39.616Z,13.67
2019-03-30T10:40:10.261Z,15.60
2019-03-30T10:42:40.329Z,14.20
2019-03-30T10:45:10.609Z,14.57
2019-03-30T10:47:40.565Z,15.97
2019-03-30T10:50:10.805Z,14.37
2019-03-30T10:52:40.792Z,13.73
2019-03-30T10:55:10.919Z,12.93
2019-03-30T10:57:41.673Z,15.37
2019-03-30T11:00:12.139Z,12.33
2019-03-30T11:02:42.090Z,13.70
2019-03-30T11:05:13.266Z,15.57
2019-03-30T11:07:43.406Z,13.50
2019-03-30T11:10:13.705Z,12.83
2019-03-30T11:12:44.261Z,14.07
2019-03-30T11:15:14.374Z,13.97
2019-03-30T11:17:44.695Z,12.77
2019-03-30T11:20:14.641Z,14.30
2019-03-30T11:22:44.578Z,13.60
2019-03-30T11:25:14.482Z,13.77
2019-03-30T11:27:44.419Z,12.50
2019-03-30T11:30:14.393Z,14.90
2019-03-30T11:32:44.271Z,15.27
2019-03-30T11:35:14.192Z,14.03
2019-03-30T11:37:44.083Z,14.63
2019-03-30T11:40:14.146Z,13.98
2019-03-30T11:42:45.131Z,13.10
2019-03-30T11:45:15.092Z,14.38
2019-03-30T11:47:45.116Z,13.15
2019-03-30T11:50:15.034Z,12.63
2019-03-30T11:52:44.991Z,14.45
2019-03-30T11:55:21.816Z,18.98
2019-03-30T11:57:46.999Z,14.03
2019-03-30T12:00:17.222Z,13.83
2019-03-30T12:02:47.198Z,13.88
2019-03-30T12:05:17.155Z,15.25
2019-03-30T12:07:47.084Z,15.43
2019-03-30T12:10:17.026Z,14.80
2019-03-30T12:12:46.938Z,14.28
2019-03-30T12:15:16.867Z,15.65
2019-03-30T12:17:46.754Z,14.15
2019-03-30T12:20:17.176Z,15.78
2019-03-30T12:22:47.131Z,14.43
2019-03-30T12:25:17.011Z,14.95
2019-03-30T12:27:46.911Z,14.55
2019-03-30T12:30:16.917Z,19.27
2019-03-30T12:32:46.873Z,15.43
2019-03-30T12:35:16.871Z,17.60
2019-03-30T12:37:46.811Z,15.50
2019-03-30T12:40:17.074Z,14.67
2019-03-30T12:42:46.970Z,13.80
2019-03-30T12:45:16.975Z,14.30
2019-03-30T12:47:46.883Z,14.73
2019-03-30T12:50:16.796Z,14.73
2019-03-30T12:52:46.709Z,16.07
2019-03-30T12:55:19.840Z,13.87
2019-03-30T12:57:49.789Z,16.57
2019-03-30T13:00:20.385Z,15.63
2019-03-30T13:02:50.275Z,14.30
2019-03-30T13:05:20.244Z,14.33
2019-03-30T13:07:50.144Z,14.93
2019-03-30T13:10:20.492Z,14.30
2019-03-30T13:12:50.423Z,12.90
2019-03-30T13:15:20.425Z,12.77
2019-03-30T13:17:50.311Z,13.23
2019-03-30T13:20:20.254Z,13.87
2019-03-30T13:22:50.364Z,15.77
2019-03-30T13:25:20.298Z,12.23
2019-03-30T13:27:53.261Z,13.60
2019-03-30T13:30:22.041Z,12.17
2019-03-30T13:32:53.587Z,11.53
2019-03-30T13:35:23.557Z,14.47
2019-03-30T13:37:53.499Z,11.93
2019-03-30T13:40:23.615Z,11.57
2019-03-30T13:42:53.553Z,13.93
2019-03-30T13:45:23.609Z,13.50
2019-03-30T13:47:53.972Z,12.77
2019-03-30T13:50:23.891Z,15.20
2019-03-30T13:52:53.871Z,11.87
2019-03-30T13:55:23.808Z,17.10
2019-03-30T13:57:53.715Z,18.17
2019-03-30T14:00:23.618Z,14.50
2019-03-30T14:02:53.562Z,14.33
2019-03-30T14:05:23.563Z,18.50
2019-03-30T14:07:53.424Z,16.50
2019-03-30T14:10:23.354Z,13.07
2019-03-30T14:12:53.231Z,12.00
2019-03-30T14:15:23.164Z,14.03
2019-03-30T14:17:53.067Z,14.33
2019-03-30T14:20:23.087Z,13.27
2019-03-30T14:22:53.068Z,12.57
2019-03-30T14:25:23.105Z,14.13
2019-03-30T14:27:53.093Z,14.27
2019-03-30T14:30:23.089Z,14.07
2019-03-30T14:32:53.059Z,13.20
2019-03-30T14:35:24.556Z,14.63
2019-03-30T14:37:54.556Z,13.33
2019-03-30T14:40:24.825Z,17.17
2019-03-30T14:42:54.815Z,14.90
2019-03-30T14:45:24.761Z,17.57
2019-03-30T14:47:57.742Z,16.07
2019-03-30T14:50:28.789Z,15.53
2019-03-30T14:53:00.401Z,13.77
2019-03-30T14:55:30.824Z,13.60
2019-03-30T14:58:00.801Z,15.77
2019-03-30T15:00:31.641Z,12.90
2019-03-30T15:03:02.286Z,13.20
2019-03-30T15:05:34.716Z,16.97
2019-03-30T15:08:06.327Z,15.30
2019-03-30T15:10:36.799Z,14.70
2019-03-30T15:13:07.954Z,15.33
2019-03-30T15:15:38.385Z,14.33
2019-03-30T15:18:11.028Z,15.70
2019-03-30T15:20:40.954Z,15.67
2019-03-30T15:23:11.029Z,14.23
2019-03-30T15:25:43.675Z,18.70
2019-03-30T15:28:13.622Z,17.30
2019-03-30T15:30:43.538Z,18.57
2019-03-30T15:33:14.764Z,16.43
2019-03-30T15:35:44.749Z,15.67
2019-03-30T15:38:14.723Z,18.70
2019-03-30T15:40:44.690Z,14.27
2019-03-30T15:43:14.649Z,14.47
2019-03-30T15:45:44.975Z,13.93
2019-03-30T15:48:16.563Z,16.27
2019-03-30T15:50:46.979Z,19.03
2019-03-30T15:53:17.579Z,14.53
2019-03-30T15:55:48.990Z,15.67
2019-03-30T15:58:20.012Z,14.87
2019-03-30T16:00:50.373Z,15.97
2019-03-30T16:03:20.568Z,17.17
2019-03-30T16:05:50.825Z,15.20
2019-03-30T16:08:20.774Z,16.63
2019-03-30T16:10:52.467Z,14.70
2019-03-30T16:13:22.621Z,16.60
2019-03-30T16:15:52.967Z,19.20
2019-03-30T16:18:22.959Z,16.20
2019-03-30T16:20:53.420Z,16.00
2019-03-30T16:23:23.449Z,19.27
2019-03-30T16:25:53.479Z,18.43
2019-03-30T16:28:24.914Z,16.20
2019-03-30T16:30:55.763Z,18.50
2019-03-30T16:33:26.589Z,17.30
2019-03-30T16:35:57.288Z,16.77
2019-03-30T16:38:27.948Z,17.77
2019-03-30T16:41:00.530Z,26.07
2019-03-30T16:43:32.201Z,19.10
2019-03-30T16:46:02.921Z,22.67
2019-03-30T16:48:32.883Z,22.97
2019-03-30T16:51:02.801Z,18.43
2019-03-30T16:53:32.725Z,17.93
2019-03-30T16:56:03.295Z,17.67
2019-03-30T16:58:34.157Z,23.83
2019-03-30T17:01:04.087Z,19.37
2019-03-30T17:03:34.053Z,17.60
2019-03-30T17:06:04.024Z,18.17
2019-03-30T17:08:34.007Z,18.70
2019-03-30T17:11:04.045Z,19.40
2019-03-30T17:13:34.205Z,21.83
2019-03-30T17:16:04.160Z,17.97
2019-03-30T17:18:34.130Z,19.47
2019-03-30T17:21:04.121Z,19.07
2019-03-30T17:23:34.029Z,20.50
2019-03-30T17:26:04.053Z,15.87
2019-03-30T17:28:34.016Z,17.63
2019-03-30T17:31:04.078Z,17.30
2019-03-30T17:33:34.040Z,19.87
2019-03-30T17:36:04.152Z,20.20
2019-03-30T17:38:34.074Z,18.27
2019-03-30T17:41:04.088Z,22.17
2019-03-30T17:43:34.067Z,19.50
2019-03-30T17:46:04.134Z,19.33
2019-03-30T17:48:34.078Z,19.73
2019-03-30T17:51:05.335Z,19.60
2019-03-30T17:53:39.220Z,18.30
2019-03-30T17:56:07.574Z,20.43
2019-03-30T17:58:38.113Z,18.57
2019-03-30T18:01:08.054Z,16.67
2019-03-30T18:03:38.114Z,18.27
2019-03-30T18:06:09.387Z,17.17
2019-03-30T18:08:39.779Z,20.60
2019-03-30T18:11:10.078Z,19.03
2019-03-30T18:13:40.059Z,19.13
2019-03-30T18:16:10.646Z,20.53
2019-03-30T18:18:41.586Z,20.53
2019-03-30T18:21:13.652Z,18.27
2019-03-30T18:23:47.398Z,18.30
2019-03-30T18:26:17.111Z,21.57
2019-03-30T18:28:47.050Z,18.07
2019-03-30T18:31:17.468Z,19.47
2019-03-30T18:33:47.610Z,29.40
2019-03-30T18:36:18.843Z,19.23
2019-03-30T18:38:49.810Z,20.67
2019-03-30T18:41:19.970Z,25.50
2019-03-30T18:43:50.901Z,21.37
2019-03-30T18:46:20.827Z,22.83
2019-03-30T18:48:51.027Z,22.07
2019-03-30T18:51:21.562Z,20.57
2019-03-30T18:53:52.195Z,23.00
2019-03-30T18:56:22.228Z,22.40
2019-03-30T18:58:52.209Z,22.67
2019-03-30T19:01:22.153Z,23.93
2019-03-30T19:03:52.335Z,22.43
2019-03-30T19:06:22.419Z,26.40
2019-03-30T19:08:52.394Z,22.33
2019-03-30T19:11:22.372Z,20.57
2019-03-30T19:13:52.294Z,23.30
2019-03-30T19:16:22.368Z,23.53
2019-03-30T19:18:52.305Z,22.30
2019-03-30T19:21:22.265Z,22.23
2019-03-30T19:23:52.215Z,20.13
2019-03-30T19:26:22.125Z,23.30
2019-03-30T19:28:56.574Z,21.33
2019-03-30T19:31:24.084Z,21.20
2019-03-30T19:33:54.610Z,19.97
2019-03-30T19:36:24.595Z,19.37
2019-03-30T19:38:54.494Z,22.30
2019-03-30T19:41:24.446Z,22.83
2019-03-30T19:43:54.389Z,20.90
2019-03-30T19:46:26.680Z,21.77
2019-03-30T19:48:55.968Z,22.77
2019-03-30T19:51:25.992Z,20.77
2019-03-30T19:53:59.690Z,21.63
2019-03-30T19:56:27.738Z,21.50
2019-03-30T19:59:10.157Z,19.83
2019-03-30T20:01:29.322Z,20.33
2019-03-30T20:03:59.285Z,21.23
2019-03-30T20:06:29.200Z,22.23
2019-03-30T20:08:59.215Z,26.90
2019-03-30T20:11:29.157Z,21.83
2019-03-30T20:13:59.083Z,25.93
2019-03-30T20:16:30.049Z,29.10
2019-03-30T20:19:11.552Z,24.90
2019-03-30T20:21:31.629Z,24.70
2019-03-30T20:24:01.578Z,28.13
2019-03-30T20:26:31.488Z,24.43
2019-03-30T20:29:01.428Z,24.73
2019-03-30T20:31:31.344Z,27.30
2019-03-30T20:34:01.232Z,30.33
2019-03-30T20:36:31.171Z,30.57
2019-03-30T20:39:01.119Z,27.13
2019-03-30T20:41:31.082Z,26.13
2019-03-30T20:44:00.995Z,29.67
2019-03-30T20:46:30.901Z,31.77
2019-03-30T20:49:00.794Z,28.13
2019-03-30T20:51:30.695Z,30.70
2019-03-30T20:54:00.639Z,28.33
2019-03-30T20:56:30.574Z,29.67
2019-03-30T20:59:01.036Z,32.77
2019-03-30T21:01:30.922Z,28.60
2019-03-30T21:04:00.849Z,29.30
2019-03-30T21:06:30.778Z,27.47
2019-03-30T21:09:00.725Z,31.63
2019-03-30T21:11:30.659Z,31.37
2019-03-30T21:14:00.608Z,28.43
2019-03-30T21:16:31.776Z,28.20
2019-03-30T21:19:01.755Z,34.27
2019-03-30T21:21:31.793Z,30.83
2019-03-30T21:24:01.712Z,28.73
2019-03-30T21:26:31.641Z,32.97
2019-03-30T21:29:01.577Z,32.77
2019-03-30T21:31:31.581Z,36.33
2019-03-30T21:34:01.453Z,31.67
2019-03-30T21:36:31.364Z,39.57
2019-03-30T21:39:01.277Z,36.13
2019-03-30T21:41:31.227Z,36.77
2019-03-30T21:44:01.163Z,33.40
2019-03-30T21:46:31.200Z,35.90
2019-03-30T21:49:01.114Z,34.27
2019-03-30T21:51:31.024Z,35.70
2019-03-30T21:54:01.121Z,35.03
2019-03-30T21:56:31.323Z,35.80
2019-03-30T21:59:01.285Z,41.33
2019-03-30T22:01:31.300Z,37.73
2019-03-30T22:04:01.207Z,37.97
2019-03-30T22:06:31.113Z,39.93
2019-03-30T22:09:01.517Z,34.87
2019-03-30T22:11:31.431Z,40.23
2019-03-30T22:14:01.788Z,44.43
2019-03-30T22:16:31.674Z,50.03
2019-03-30T22:19:01.639Z,44.47
2019-03-30T22:21:31.543Z,46.97
2019-03-30T22:24:01.529Z,43.80
2019-03-30T22:26:31.453Z,49.43
2019-03-30T22:29:01.423Z,48.37
2019-03-30T22:31:31.351Z,44.03
2019-03-30T22:34:01.270Z,44.30
2019-03-30T22:36:31.177Z,46.17
2019-03-30T22:39:01.084Z,46.67
2019-03-30T22:41:31.006Z,42.07
2019-03-30T22:44:00.933Z,45.33
2019-03-30T22:46:30.920Z,46.90
2019-03-30T22:49:00.864Z,42.43
2019-03-30T22:51:30.894Z,41.00
2019-03-30T22:54:00.852Z,45.73
2019-03-30T22:56:30.733Z,47.20
2019-03-30T22:59:00.673Z,46.90
2019-03-30T23:01:30.710Z,42.37
2019-03-30T23:04:00.730Z,43.13
2019-03-30T23:06:30.664Z,43.23
2019-03-30T23:09:00.887Z,45.53
2019-03-30T23:11:30.773Z,45.23
2019-03-30T23:14:00.668Z,43.93
2019-03-30T23:16:30.558Z,44.73
2019-03-30T23:19:00.510Z,44.97
2019-03-30T23:21:30.374Z,40.27
2019-03-30T23:24:00.286Z,47.00
2019-03-30T23:26:30.630Z,44.50
2019-03-30T23:29:00.551Z,41.70
2019-03-30T23:31:30.463Z,42.63
2019-03-30T23:34:00.535Z,43.30
2019-03-30T23:36:30.513Z,43.57
2019-03-30T23:39:00.379Z,41.70
2019-03-30T23:41:30.517Z,44.10
2019-03-30T23:44:00.431Z,46.40
2019-03-30T23:46:30.342Z,41.77
2019-03-30T23:49:00.268Z,49.63
2019-03-30T23:51:30.674Z,44.30
2019-03-30T23:54:00.554Z,37.27
2019-03-30T23:56:30.505Z,47.57
2019-03-30T23:59:00.350Z,39.37
